• Join FlightAware (Why Join?)
  • Login
  • US Flag 
11:58PM EDT


 

Airport Tracker/Info


-or-


 

Live Flight TrackerFlight Track Log ✈ ACA831 ✈ 18-Aug-2013 ✈ LSGG / GVA - CYUL

Flight Track Log - Related Links

Times and Time Zones

All times are in EDT time to prevent confusion due to time zone crossing. See the ACA831 flight status page for this flight to view local times or setup timezone preferences in your user account.

Time Position Orientation Groundspeed Altitude Reporting Facility
EDT Latitude Longitude Course Direction KTS MPH feet Rate Location/Type
06:20AM 46.2460 6.1200 270° West 105 121  Level FlightAware
06:21AM 46.2330 6.1010 225° Southwest 172 198 1,600 3,360 Climbing FlightAware
06:21AM 46.2200 6.0830 224° Southwest 159 183 2,800 2,280 Climbing FlightAware
06:21AM 46.2070 6.0640 225° Southwest 171 197 3,500 2,040 Climbing FlightAware
06:22AM 46.1940 6.0450 225° Southwest 173 199 4,400 2,460 Climbing FlightAware
06:22AM 46.1830 6.0290 225° Southwest 167 192 5,200 2,100 Climbing FlightAware
06:22AM 46.1720 6.0120 227° Southwest 187 215 5,800 1,800 Climbing FlightAware
06:23AM 46.1520 5.9820 226° Southwest 208 239 6,700 1,980 Climbing FlightAware
06:23AM 46.1390 5.9630 225° Southwest 209 241 7,500 2,640 Climbing FlightAware
06:23AM 46.1290 5.9470 228° Southwest 205 236 8,200 2,280 Climbing FlightAware
06:24AM 46.1160 5.9260 228° Southwest 218 251 8,800 1,500 Climbing FlightAware
06:24AM 46.1070 5.9090 233° Southwest 235 270 9,100 1,380 Climbing FlightAware
06:24AM 46.1040 5.9000 244° Southwest 240 276 9,300 2,400 Climbing FlightAware
06:24AM 46.1030 5.8920 260° West 245 282 9,500 2,520 Climbing FlightAware
06:24AM 46.1040 5.8760 275° West 248 285 9,900 1,980 Climbing FlightAware
06:25AM 46.1090 5.8600 294° West 259 298 10,200 1,440 Climbing FlightAware
06:25AM 46.1390 5.7960 304° West 315 362 11,100 1,320 Climbing FlightAware
06:26AM 46.1690 5.7290 303° West 358 412 11,900 1,500 Climbing FlightAware
06:26AM 46.2010 5.6570 303° West 382 440 12,900 2,100 Climbing FlightAware
06:27AM 46.2310 5.5940 305° West 395 455 14,200 2,640 Climbing FlightAware
06:27AM 46.2590 5.5620 322° Northwest 400 460 15,100 2,820 Climbing FlightAware
06:28AM 46.2960 5.5400 338° Northwest 403 464 16,100 2,640 Climbing FlightAware
06:28AM 46.3510 5.5140 342° North 421 484 17,300 2,520 Climbing FlightAware
06:29AM 46.4190 5.4820 342° North 420 483 18,900 2,580 Climbing FlightAware
06:29AM 46.4900 5.4490 342° North 435 501 20,400 2,160 Climbing FlightAware
06:30AM 46.5620 5.4160 343° North 445 512 21,600 1,800 Climbing FlightAware
06:30AM 46.5900 5.3970 335° Northwest 451 519 22,000 1,620 Climbing FlightAware
06:31AM 46.6440 5.3360 322° Northwest 456 525 22,900 1,800 Climbing FlightAware
06:31AM 46.7010 5.2760 324° Northwest 463 533 24,000 1,740 Climbing FlightAware
06:32AM 46.7700 5.2080 326° Northwest 476 548 25,000 1,920 Climbing FlightAware
06:32AM 46.8360 5.1460 327° Northwest 474 545 26,400 2,520 Climbing FlightAware
06:33AM 46.8650 5.1170 326° Northwest 468 539 27,900 2,520 Climbing FlightAware
06:34AM 46.9560 5.0230 325° Northwest 458 527 29,300 1,680 Climbing FlightAware
06:34AM 47.0190 4.9540 323° Northwest 459 528 30,000 540 Climbing FlightAware
06:35AM 47.0870 4.8810 324° Northwest 459 528 30,000  Level FlightAware
06:36AM 47.1630 4.7990 324° Northwest 453 521 30,000  Level FlightAware
06:36AM 47.2290 4.7280 324° Northwest 448 516 30,000  Level FlightAware
06:37AM 47.2800 4.6730 324° Northwest 448 516 30,000  Level FlightAware
06:37AM 47.3470 4.6060 326° Northwest 446 513 30,000  Level FlightAware
06:38AM 47.4020 4.5500 325° Northwest 446 513 30,000  Level FlightAware
06:39AM 47.4660 4.4840 325° Northwest 451 519 30,000 360 Level FlightAware
06:39AM 47.5270 4.4210 325° Northwest 453 521 30,500 780 Climbing FlightAware
06:40AM 47.5890 4.3570 325° Northwest 452 520 31,000 720 Climbing FlightAware
06:40AM 47.6490 4.2950 325° Northwest 444 511 31,400 780 Climbing FlightAware
06:41AM 47.7160 4.2250 325° Northwest 429 494 32,000 420 Climbing FlightAware
06:42AM 47.7720 4.1660 325° Northwest 428 493 32,000  Level FlightAware
06:42AM 47.8240 4.1120 325° Northwest 433 498 32,000  Level FlightAware
06:43AM 47.8830 4.0500 325° Northwest 436 502 32,000  Level FlightAware
06:43AM 47.9420 3.9870 324° Northwest 436 502 32,000  Level FlightAware
06:44AM 48.0030 3.9240 325° Northwest 434 499 32,000  Level FlightAware
06:45AM 48.0570 3.8660 324° Northwest 433 498 32,000  Level FlightAware
06:45AM 48.1180 3.8010 325° Northwest 433 498 32,000  Level FlightAware
06:46AM 48.1750 3.7400 324° Northwest 433 498 32,000  Level FlightAware
06:46AM 48.2320 3.6790 325° Northwest 433 498 32,000  Level FlightAware
06:47AM 48.2850 3.6220 324° Northwest 434 499 32,000  Level FlightAware
06:48AM 48.3430 3.5600 325° Northwest 434 499 32,000  Level FlightAware
06:48AM 48.4030 3.4960 325° Northwest 434 499 32,000  Level FlightAware
06:49AM 48.4610 3.4410 328° Northwest 445 512 32,000  Level FlightAware
06:49AM 48.5220 3.4010 337° Northwest 447 514 32,000  Level FlightAware
06:50AM 48.5930 3.3520 335° Northwest 446 513 32,000  Level FlightAware
06:50AM 48.6530 3.3090 335° Northwest 444 511 32,000  Level FlightAware
06:51AM 48.7210 3.2570 333° Northwest 444 511 32,000  Level FlightAware
06:52AM 48.7830 3.2100 333° Northwest 444 511 32,000  Level FlightAware
06:52AM 48.8510 3.1590 334° Northwest 444 511 32,000  Level FlightAware
06:53AM 48.9210 3.1340 347° North 465 535 32,000 60 Level FlightAware
06:53AM 48.9970 3.1230 355° North 466 536 32,100 600 Climbing FlightAware
06:54AM 49.0730 3.1110 354° North 461 531 32,700 900 Climbing FlightAware
06:55AM 49.1500 3.1010 355° North 457 526 33,200 780 Climbing FlightAware
06:55AM 49.2250 3.0900 355° North 457 526 33,700 720 Climbing FlightAware
06:56AM 49.2880 3.0820 355° North 456 525 34,000 240 Climbing FlightAware
06:56AM 49.3630 3.0590 349° North 451 519 34,000  Level FlightAware
06:57AM 49.4320 3.0080 334° Northwest 438 504 34,000  Level FlightAware
06:57AM 49.4710 2.9690 327° Northwest 436 502 34,000  Level FlightAware
06:58AM 49.5291 2.9116 327° Northwest 1 1 34,000  Level FlightAware UK
06:58AM 49.5470 2.8910 327° Northwest 439 505 34,000  Level FlightAware
06:59AM 49.6080 2.8280 326° Northwest 439 505 34,000  Level FlightAware
06:59AM 49.6570 2.7770 326° Northwest 438 504 34,000  Level FlightAware
07:00AM 49.7220 2.7100 326° Northwest 431 496 34,000  Level FlightAware
07:00AM 49.7760 2.6540 326° Northwest 432 497 34,000  Level FlightAware
07:01AM 49.8400 2.5880 326° Northwest 431 496 34,000  Level FlightAware
07:02AM 49.9050 2.5200 326° Northwest 432 497 34,000  Level FlightAware
07:02AM 49.9136 2.5112 326° Northwest 468 539 34,000  Level FlightAware UK
07:02AM 49.9620 2.4600 326° Northwest 432 497 34,000  Level FlightAware
07:03AM 50.0310 2.3880 326° Northwest 431 496 34,000  Level FlightAware
07:03AM 50.0800 2.3360 326° Northwest 438 504 34,000  Level FlightAware
07:04AM 50.1370 2.2760 326° Northwest 437 503 34,000  Level FlightAware
07:05AM 50.2040 2.2050 326° Northwest 436 502 34,000  Level FlightAware
07:05AM 50.2520 2.1540 326° Northwest 435 501 34,000  Level FlightAware
07:06AM 50.3120 2.0900 326° Northwest 434 499 34,000  Level FlightAware
07:06AM 50.3710 2.0240 325° Northwest 431 496 34,000  Level FlightAware
07:07AM 50.4290 1.9500 321° Northwest 426 490 34,000  Level FlightAware
07:07AM 50.4820 1.8770 319° Northwest 426 490 34,000  Level FlightAware
07:08AM 50.5340 1.8050 319° Northwest 425 489 34,000  Level FlightAware
07:09AM 50.5850 1.7350 319° Northwest 425 489 34,000  Level FlightAware
07:09AM 50.6400 1.6600 319° Northwest 425 489 34,000  Level FlightAware
07:10AM 50.6940 1.5840 318° Northwest 425 489 34,000  Level FlightAware
07:10AM 50.7410 1.5190 319° Northwest 425 489 34,000  Level FlightAware
07:11AM 50.7860 1.4570 319° Northwest 425 489 34,000  Level FlightAware
07:12AM 50.8400 1.3680 314° West 414 476 34,000  Level FlightAware
07:12AM 50.8730 1.2820 301° West 404 465 34,000  Level FlightAware
07:13AM 50.8960 1.1828 290° West 399 459 34,000  Level FlightAware ADS-B
07:13AM 50.9156 1.0878 288° West 399 459 34,000  Level FlightAware ADS-B
07:14AM 50.9370 0.9962 290° West 400 460 34,000  Level FlightAware ADS-B
07:14AM 50.9588 0.9104 292° West 403 464 34,000  Level FlightAware ADS-B
07:15AM 50.9816 0.8243 293° West 402 463 34,000  Level FlightAware ADS-B
07:15AM 51.0058 0.7327 293° West 403 464 34,000  Level FlightAware ADS-B
07:16AM 51.0301 0.6401 293° West 404 465 34,000  Level FlightAware ADS-B
07:17AM 51.0515 0.5579 293° West 404 465 34,000  Level FlightAware ADS-B
07:17AM 51.0743 0.4695 292° West 404 465 34,000  Level FlightAware ADS-B
07:18AM 51.0960 0.3848 292° West 406 467 34,000  Level FlightAware ADS-B
07:18AM 51.1175 0.3005 292° West 406 467 34,000  Level FlightAware ADS-B
07:19AM 51.1432 0.1991 292° West 406 467 34,000  Level FlightAware ADS-B
07:19AM 51.1649 0.1130 292° West 406 467 34,000  Level FlightAware ADS-B
07:20AM 51.1860 0.0295 292° West 407 468 34,000  Level FlightAware ADS-B
07:20AM 51.2088 -0.0609 292° West 408 470 34,000  Level FlightAware ADS-B
07:21AM 51.2303 -0.1469 292° West 409 471 34,000  Level FlightAware ADS-B
07:21AM 51.2514 -0.2316 292° West 409 471 34,000  Level FlightAware ADS-B
07:22AM 51.2722 -0.3156 292° West 409 471 34,000  Level FlightAware ADS-B
07:22AM 51.2946 -0.4062 292° West 409 471 34,000  Level FlightAware ADS-B
07:23AM 51.3163 -0.4943 292° West 409 471 34,000  Level FlightAware ADS-B
07:23AM 51.3377 -0.5819 291° West 409 471 34,000  Level FlightAware ADS-B
07:24AM 51.3586 -0.6671 291° West 408 470 34,000  Level FlightAware ADS-B
07:24AM 51.3793 -0.7520 291° West 408 470 34,000  Level FlightAware ADS-B
07:25AM 51.3998 -0.8368 291° West 407 468 34,000  Level FlightAware ADS-B
07:25AM 51.4219 -0.9286 291° West 406 467 34,000  Level FlightAware ADS-B
07:26AM 51.4428 -1.0158 291° West 407 468 34,000  Level FlightAware ADS-B
07:26AM 51.4634 -1.1012 291° West 407 468 34,000  Level FlightAware ADS-B
07:27AM 51.4826 -1.1826 291° West 406 467 34,000  Level FlightAware ADS-B
07:27AM 51.4995 -1.2731 287° West 403 464 34,000  Level FlightAware ADS-B
07:28AM 51.5133 -1.3635 284° West 403 464 34,000  Level FlightAware ADS-B
07:29AM 51.5264 -1.4532 283° West 404 465 34,000  Level FlightAware ADS-B
07:29AM 51.5354 -1.5138 283° West 404 465 34,000  Level FlightAware ADS-B
07:29AM 51.5530 -1.5962 289° West 408 470 34,000  Level FlightAware ADS-B
07:30AM 51.5664 -1.6431 295° West 410 472 34,000  Level FlightAware ADS-B
07:30AM 51.5944 -1.7266 298° West 412 474 34,000  Level FlightAware ADS-B
07:31AM 51.6227 -1.8114 298° West 413 475 34,000  Level FlightAware ADS-B
07:31AM 51.6517 -1.8969 299° West 413 475 34,000  Level FlightAware ADS-B
07:32AM 51.6797 -1.9793 299° West 413 475 34,000  Level FlightAware ADS-B
07:32AM 51.7138 -2.0801 299° West 412 474 34,000  Level FlightAware ADS-B
07:33AM 51.7429 -2.1664 299° West 412 474 34,000  Level FlightAware ADS-B
07:33AM 51.7707 -2.2497 298° West 411 473 34,000  Level FlightAware ADS-B
07:34AM 51.7978 -2.3311 298° West 411 473 34,000  Level FlightAware ADS-B
07:34AM 51.8270 -2.4185 298° West 411 473 34,000  Level FlightAware ADS-B
07:35AM 51.8539 -2.5001 298° West 411 473 34,000  Level FlightAware ADS-B
07:35AM 51.8829 -2.5879 298° West 411 473 34,000  Level FlightAware ADS-B
07:36AM 51.9149 -2.6851 298° West 410 472 34,000  Level FlightAware ADS-B
07:37AM 51.9640 -2.8350 298° West 409 471 34,000  Level FlightAware
07:38AM 51.9920 -2.9210 298° West 409 471 34,000  Level FlightAware
07:38AM 52.0190 -3.0030 298° West 408 470 34,000  Level FlightAware
07:39AM 52.0550 -3.1150 298° West 407 468 34,000  Level FlightAware
07:39AM 52.0579 -3.1245 298° West 468 539 34,000  Level FlightAware UK
07:39AM 52.0860 -3.2150 297° West 407 468 34,000  Level FlightAware
07:40AM 52.1040 -3.2710 298° West 408 470 34,000  Level FlightAware ADS-B
07:40AM 52.1298 -3.3528 297° West 408 470 34,000  Level FlightAware ADS-B
07:41AM 52.1566 -3.4380 297° West 408 470 34,000  Level FlightAware ADS-B
07:41AM 52.1860 -3.5317 297° West 408 470 34,000  Level FlightAware ADS-B
07:42AM 52.2133 -3.6192 297° West 409 471 34,000  Level FlightAware ADS-B
07:43AM 52.2671 -3.7926 297° West 410 472 34,000  Level FlightAware ADS-B
07:43AM 52.2930 -3.8770 297° West 409 471 34,000  Level FlightAware
07:44AM 52.3244 -3.9787 297° West 470 541 34,000  Level FlightAware UK
07:44AM 52.3240 -3.9770 297° West 410 472 34,000  Level FlightAware
07:45AM 52.3530 -4.0710 297° West 405 466 34,000  Level FlightAware
07:45AM 52.3880 -4.1850 297° West 406 467 34,000  Level FlightAware
07:45AM 52.3903 -4.1944 297° West 470 541 34,000  Level FlightAware UK
07:46AM 52.4200 -4.2930 296° West 409 471 34,000  Level FlightAware
07:46AM 52.4450 -4.3740 297° West 409 471 34,000  Level FlightAware
07:47AM 52.4740 -4.4710 296° West 409 471 34,000  Level FlightAware
07:48AM 52.5080 -4.5850 296° West 408 470 34,000  Level FlightAware
07:48AM 52.5330 -4.6690 296° West 408 470 34,000  Level FlightAware
07:49AM 52.5630 -4.7670 297° West 409 471 34,000  Level FlightAware
07:49AM 52.5940 -4.8730 296° West 409 471 34,000  Level FlightAware
07:50AM 52.6200 -4.9620 296° West 409 471 34,000  Level FlightAware
07:51AM 52.6500 -5.0630 296° West 409 471 34,000  Level FlightAware
07:51AM 52.6770 -5.1550 296° West 408 470 34,000  Level FlightAware
07:52AM 52.7060 -5.2560 295° West 407 468 34,000  Level FlightAware
07:52AM 52.7360 -5.3570 296° West 404 465 34,000  Level FlightAware
07:53AM 52.7650 -5.4570 296° West 401 461 34,000  Level FlightAware
07:53AM 52.7930 -5.5570 295° West 404 465 34,000  Level FlightAware
07:54AM 52.8200 -5.6510 295° West 405 466 34,000  Level FlightAware
07:55AM 52.8490 -5.7520 295° West 405 466 34,000  Level FlightAware
07:55AM 52.8761 -5.8454 295° West 462 532 34,000  Level FlightAware UK
07:55AM 52.8770 -5.8480 295° West 405 466 34,000  Level FlightAware
07:56AM 52.9010 -5.9360 294° West 406 467 34,000  Level FlightAware
07:56AM 52.9340 -6.0520 295° West 407 468 34,000  Level FlightAware
07:57AM 52.9600 -6.1460 295° West 407 468 34,000  Level FlightAware
07:58AM 52.9890 -6.2480 295° West 408 470 34,000  Level FlightAware
07:58AM 53.0170 -6.3490 295° West 407 468 34,000  Level FlightAware
07:59AM 53.0430 -6.4410 295° West 406 467 34,000  Level FlightAware
07:59AM 53.0701 -6.5392 295° West 460 529 34,000  Level FlightAware UK
07:59AM 53.0700 -6.5400 295° West 406 467 34,000  Level FlightAware
08:00AM 53.0960 -6.6370 294° West 409 471 34,000  Level FlightAware
08:00AM 53.1260 -6.7450 295° West 410 472 34,000  Level FlightAware
08:01AM 53.1530 -6.8440 294° West 411 473 34,000  Level FlightAware
08:02AM 53.1810 -6.9480 294° West 412 474 34,000  Level FlightAware
08:02AM 53.2060 -7.0410 294° West 414 476 34,000  Level FlightAware
08:03AM 53.2342 -7.1431 294° West 464 534 34,000  Level FlightAware UK
08:03AM 53.2330 -7.1380 294° West 414 476 34,000  Level FlightAware
08:03AM 53.2650 -7.2580 294° West 416 479 34,000  Level FlightAware
08:04AM 53.2880 -7.3440 294° West 416 479 34,000  Level FlightAware
08:05AM 53.3170 -7.4550 294° West 417 480 34,000  Level FlightAware
08:05AM 53.3460 -7.5630 294° West 417 480 34,000  Level FlightAware
08:06AM 53.3700 -7.6560 293° West 417 480 34,000  Level FlightAware
08:06AM 53.3990 -7.7670 294° West 417 480 34,000  Level FlightAware
08:07AM 53.4253 -7.8667 294° West 462 532 34,000  Level FlightAware UK
08:07AM 53.4260 -7.8690 294° West 417 480 34,000  Level FlightAware
08:07AM 53.4530 -7.9760 293° West 418 481 34,000  Level FlightAware
08:08AM 53.4780 -8.0710 294° West 419 482 34,000  Level FlightAware
08:09AM 53.5050 -8.1760 293° West 419 482 34,000  Level FlightAware
08:09AM 53.5330 -8.2840 294° West 419 482 34,000  Level FlightAware
08:10AM 53.5631 -8.4034 294° West 462 532 34,000  Level FlightAware UK
08:10AM 53.5650 -8.4130 294° West 420 483 34,000  Level FlightAware
08:10AM 53.5903 -8.5109 294° West 460 529 34,000  Level FlightAware UK
08:10AM 53.5880 -8.5050 294° West 421 484 34,000  Level FlightAware
08:11AM 53.6130 -8.6014 294° West 464 534 34,000  Level FlightAware UK
08:11AM 53.6150 -8.6110 294° West 422 486 34,000  Level FlightAware
08:12AM 53.6450 -8.7280 293° West 423 487 34,000  Level FlightAware
08:12AM 53.6670 -8.8190 292° West 424 488 34,000  Level FlightAware
08:13AM 53.6930 -8.9220 292° West 424 488 34,000  Level FlightAware
08:13AM 53.7038 -8.9653 292° West 462 532 34,000  Level FlightAware UK
08:14AM 53.7340 -9.0880 293° West 425 489 34,000  Level FlightAware
08:14AM 53.7550 -9.1760 292° West 425 489 34,000  Level FlightAware
08:15AM 53.7850 -9.2960 293° West 427 491 34,000  Level FlightAware
08:15AM 53.8170 -9.4300 292° West 430 495 34,000  Level FlightAware
08:16AM 53.8450 -9.5440 293° West 429 494 34,000  Level FlightAware
08:17AM 53.8720 -9.6570 292° West 429 494 34,000  Level FlightAware
08:17AM 53.8990 -9.7700 292° West 428 493 34,000  Level FlightAware
08:18AM 53.9290 -9.8950 292° West 429 494 34,000  Level FlightAware
08:19AM 53.9510 -9.9890 292° West 428 493 34,000  Level FlightAware
08:19AM 53.9770 -10.0980 292° West 428 493 34,000  Level FlightAware
08:20AM 54.0060 -10.2250 291° West 425 489 34,000  Level FlightAware
08:20AM 54.0310 -10.3330 292° West 427 491 34,000  Level FlightAware
08:21AM 54.0540 -10.4290 292° West 428 493 34,000  Level FlightAware
08:21AM 54.0790 -10.5370 292° West 429 494 34,000  Level FlightAware
08:22AM 54.1030 -10.6460 291° West 429 494 34,000  Level FlightAware
08:23AM 54.1290 -10.7580 292° West 430 495 34,000  Level FlightAware
08:23AM 54.1550 -10.8710 291° West 431 496 34,000  Level FlightAware
08:24AM 54.1830 -10.9950 291° West 432 497 34,000  Level FlightAware
08:24AM 54.2050 -11.0940 291° West 432 497 34,000  Level FlightAware
08:25AM 54.2290 -11.2010 291° West 433 498 34,000  Level FlightAware
08:26AM 54.2580 -11.3350 290° West 434 499 34,000  Level FlightAware
08:26AM 54.2820 -11.4430 291° West 434 499 34,000  Level FlightAware
08:27AM 54.3050 -11.5440 291° West 434 499 34,000  Level FlightAware
08:27AM 54.3330 -11.6720 291° West 434 499 34,000  Level FlightAware
08:28AM 54.3540 -11.7700 290° West 434 499 34,000  Level FlightAware
08:28AM 54.3780 -11.8830 290° West 434 499 34,000  Level FlightAware
08:29AM 54.4070 -12.0170 290° West 434 499 34,000  Level FlightAware
08:30AM 54.4310 -12.1290 290° West 437 503 34,000  Level FlightAware
08:30AM 54.4550 -12.2420 290° West 437 503 34,000  Level FlightAware
08:31AM 54.4740 -12.3290 291° West 437 503 34,000  Level FlightAware
08:31AM 54.4950 -12.4300 290° West 437 503 34,000  Level FlightAware
08:32AM 54.5240 -12.5700 290° West 438 504 34,000  Level FlightAware
08:32AM 54.5480 -12.6860 290° West 438 504 34,000  Level FlightAware
08:33AM 54.5700 -12.7950 289° West 438 504 34,000  Level FlightAware
08:34AM 54.5940 -12.9080 290° West 439 505 34,000  Level FlightAware
08:34AM 54.6190 -13.0300 290° West 439 505 34,000  Level FlightAware
08:35AM 54.6380 -13.1270 289° West 439 505 34,000  Level FlightAware
08:35AM 54.6580 -13.2290 289° West 439 505 34,000  Level FlightAware
08:36AM 54.6860 -13.3620 290° West 439 505 34,000  Level FlightAware
08:37AM 54.7070 -13.4700 289° West 439 505 34,000  Level FlightAware
08:37AM 54.7280 -13.5740 289° West 439 505 34,000  Level FlightAware
08:38AM 54.7480 -13.6760 289° West 439 505 34,000  Level FlightAware
08:38AM 54.7690 -13.7810 289° West 439 505 34,000  Level FlightAware
08:39AM 54.7890 -13.8830 289° West 439 505 34,000  Level FlightAware
08:40AM 54.8090 -13.9850 289° West 439 505 34,000  Level FlightAware
08:40AM 54.8300 -14.0890 289° West 439 505 34,000  Level FlightAware
08:41AM 54.8500 -14.1920 289° West 439 505 34,000  Level FlightAware
08:41AM 54.8710 -14.2940 290° West 439 505 34,000  Level FlightAware
08:42AM 54.8910 -14.3960 289° West 439 505 34,000  Level FlightAware
08:43AM 54.9110 -14.4980 289° West 439 505 34,000  Level FlightAware
08:43AM 54.9310 -14.6000 289° West 439 505 34,000  Level FlightAware
08:44AM 54.9520 -14.7050 289° West 439 505 34,000  Level FlightAware
08:45AM 54.9730 -14.8110 289° West 439 505 34,000  Level FlightAware
08:45AM 54.9930 -14.9130 289° West 439 505 34,000  Level FlightAware
08:46AM 55.0130 -15.0150 289° West 439 505 34,000  Level FlightAware
08:48AM 55.0502 -15.3725 280° West  Level Estimated
08:49AM 55.0704 -15.5710 280° West  Level Estimated
08:50AM 55.0903 -15.7696 280° West  Level Estimated
08:51AM 55.1098 -15.9685 280° West  Level Estimated
08:52AM 55.1290 -16.1675 280° West  Level Estimated
08:53AM 55.1479 -16.3668 279° West  Level Estimated
08:54AM 55.1665 -16.5662 279° West  Level Estimated
08:55AM 55.1846 -16.7649 279° West  Level Estimated
08:56AM 55.2024 -16.9638 279° West  Level Estimated
08:57AM 55.2200 -17.1629 279° West  Level Estimated
08:58AM 55.2371 -17.3622 279° West  Level Estimated
08:59AM 55.2540 -17.5616 279° West  Level Estimated
09:00AM 55.2705 -17.7612 278° West  Level Estimated
09:01AM 55.2867 -17.9610 278° West  Level Estimated
09:02AM 55.3026 -18.1609 278° West  Level Estimated
09:03AM 55.3182 -18.3610 278° West  Level Estimated
09:04AM 55.3334 -18.5612 278° West  Level Estimated
09:05AM 55.3483 -18.7616 278° West  Level Estimated
09:06AM 55.3629 -18.9622 277° West  Level Estimated
09:07AM 55.3771 -19.1628 277° West  Level Estimated
09:08AM 55.3910 -19.3637 277° West  Level Estimated
09:09AM 55.4046 -19.5646 277° West  Level Estimated
09:10AM 55.4179 -19.7658 277° West  Level Estimated
09:11AM 55.4308 -19.9670 277° West  Level Estimated
09:11AM 55.0000 -20.0000 274° West 412 474 34,000  Level ETMS Enhanced Traffic Management System
09:12AM 55.4434 -20.1684 276° West  Level Estimated
09:13AM 55.4557 -20.3699 276° West  Level Estimated
09:14AM 55.4676 -20.5715 276° West  Level Estimated
09:15AM 55.4792 -20.7732 276° West  Level Estimated
09:16AM 55.4905 -20.9751 276° West  Level Estimated
09:17AM 55.0605 -21.7968 273° West 412 474 34,000  Level FlightAware Transoceanic
09:18AM 55.0656 -21.9967 272° West 412 474 34,000  Level FlightAware Transoceanic
09:19AM 55.0704 -22.1967 272° West 412 474 34,000  Level FlightAware Transoceanic
09:20AM 55.0748 -22.3968 272° West 412 474 34,000  Level FlightAware Transoceanic
09:21AM 55.0789 -22.5968 272° West 412 474 34,000  Level FlightAware Transoceanic
09:22AM 55.0827 -22.7970 272° West 412 474 34,000  Level FlightAware Transoceanic
09:23AM 55.0861 -22.9971 272° West 412 474 34,000  Level FlightAware Transoceanic
09:24AM 55.0893 -23.1973 271° West 412 474 34,000  Level FlightAware Transoceanic
09:25AM 55.0920 -23.3975 271° West 412 474 34,000  Level FlightAware Transoceanic
09:26AM 55.0945 -23.5978 271° West 412 474 34,000  Level FlightAware Transoceanic
09:27AM 55.0966 -23.7981 271° West 412 474 34,000  Level FlightAware Transoceanic
09:28AM 55.0985 -23.9984 271° West 412 474 34,000  Level FlightAware Transoceanic
09:29AM 55.0999 -24.1987 271° West 412 474 34,000  Level FlightAware Transoceanic
09:30AM 55.1011 -24.3990 270° West 412 474 34,000  Level FlightAware Transoceanic
09:31AM 55.1019 -24.5993 270° West 412 474 34,000  Level FlightAware Transoceanic
09:32AM 55.1024 -24.7997 270° West 412 474 34,000  Level FlightAware Transoceanic
09:33AM 55.1026 -25.0000 270° West 412 474 34,000  Level FlightAware Transoceanic
09:34AM 55.1024 -25.2003 270° West 412 474 34,000  Level FlightAware Transoceanic
09:35AM 55.1019 -25.4007 270° West 412 474 34,000  Level FlightAware Transoceanic
09:36AM 55.1011 -25.6010 270° West 412 474 34,000  Level FlightAware Transoceanic
09:37AM 55.0999 -25.8013 269° West 412 474 34,000  Level FlightAware Transoceanic
09:38AM 55.0985 -26.0016 269° West 412 474 34,000  Level FlightAware Transoceanic
09:39AM 55.0966 -26.2019 269° West 412 474 34,000  Level FlightAware Transoceanic
09:40AM 55.0945 -26.4022 269° West 412 474 34,000  Level FlightAware Transoceanic
09:41AM 55.0920 -26.6025 269° West 412 474 34,000  Level FlightAware Transoceanic
09:42AM 55.0893 -26.8027 269° West 412 474 34,000  Level FlightAware Transoceanic
09:43AM 55.0861 -27.0029 268° West 412 474 34,000  Level FlightAware Transoceanic
09:44AM 55.0827 -27.2030 268° West 412 474 34,000  Level FlightAware Transoceanic
09:45AM 55.0789 -27.4032 268° West 412 474 34,000  Level FlightAware Transoceanic
09:46AM 55.0748 -27.6032 268° West 412 474 34,000  Level FlightAware Transoceanic
09:47AM 55.0704 -27.8033 268° West 412 474 34,000  Level FlightAware Transoceanic
09:48AM 55.0656 -28.0033 268° West 412 474 34,000  Level FlightAware Transoceanic
09:49AM 55.0605 -28.2032 267° West 412 474 34,000  Level FlightAware Transoceanic
09:50AM 55.0551 -28.4031 267° West 412 474 34,000  Level FlightAware Transoceanic
09:51AM 55.0494 -28.6030 267° West 412 474 34,000  Level FlightAware Transoceanic
09:52AM 55.0433 -28.8027 267° West 412 474 34,000  Level FlightAware Transoceanic
09:53AM 55.0369 -29.0025 267° West 412 474 34,000  Level FlightAware Transoceanic
09:54AM 55.0302 -29.2021 267° West 412 474 34,000  Level FlightAware Transoceanic
09:55AM 55.0231 -29.4017 266° West 412 474 34,000  Level FlightAware Transoceanic
09:56AM 55.0157 -29.6012 266° West 412 474 34,000  Level FlightAware Transoceanic
09:57AM 55.0080 -29.8006 266° West 412 474 34,000  Level FlightAware Transoceanic
09:58AM 55.0000 -30.0005 266° West  Level FlightAware Approximate
09:59AM 55.0000 -30.0011 274° West  Level FlightAware Approximate
10:00AM 55.0081 -30.2010 274° West  Level FlightAware Approximate
10:01AM 55.0158 -30.4010 274° West  Level FlightAware Approximate
10:01AM 55.0000 -30.0000 274° West 429 494 34,000  Level ETMS Enhanced Traffic Management System
10:02AM 55.0232 -30.6010 274° West  Level FlightAware Approximate
10:03AM 55.0303 -30.8012 274° West  Level FlightAware Approximate
10:04AM 55.0370 -31.0014 273° West  Level FlightAware Approximate
10:05AM 55.0434 -31.2016 273° West  Level FlightAware Approximate
10:06AM 55.0495 -31.4020 273° West  Level FlightAware Approximate
10:07AM 55.0552 -31.6024 273° West  Level FlightAware Approximate
10:08AM 55.0676 -32.0801 272° West 429 494 34,000  Level FlightAware Transoceanic
10:09AM 55.0724 -32.2884 272° West 429 494 34,000  Level FlightAware Transoceanic
10:10AM 55.0769 -32.4968 272° West 429 494 34,000  Level FlightAware Transoceanic
10:11AM 55.0810 -32.7052 272° West 429 494 34,000  Level FlightAware Transoceanic
10:12AM 55.0847 -32.9137 272° West 429 494 34,000  Level FlightAware Transoceanic
10:13AM 55.0881 -33.1222 272° West 429 494 34,000  Level FlightAware Transoceanic
10:14AM 55.0912 -33.3308 271° West 429 494 34,000  Level FlightAware Transoceanic
10:15AM 55.0938 -33.5394 271° West 429 494 34,000  Level FlightAware Transoceanic
10:16AM 55.0961 -33.7480 271° West 429 494 34,000  Level FlightAware Transoceanic
10:17AM 55.0981 -33.9566 271° West 429 494 34,000  Level FlightAware Transoceanic
10:18AM 55.0997 -34.1653 271° West 429 494 34,000  Level FlightAware Transoceanic
10:19AM 55.1010 -34.3740 271° West 429 494 34,000  Level FlightAware Transoceanic
10:20AM 55.1018 -34.5826 270° West 429 494 34,000  Level FlightAware Transoceanic
10:21AM 55.1024 -34.7913 270° West 429 494 34,000  Level FlightAware Transoceanic
10:22AM 55.1026 -35.0000 270° West 429 494 34,000  Level FlightAware Transoceanic
10:23AM 55.1024 -35.2087 270° West 429 494 34,000  Level FlightAware Transoceanic
10:24AM 55.1018 -35.4174 270° West 429 494 34,000  Level FlightAware Transoceanic
10:25AM 55.1010 -35.6260 269° West 429 494 34,000  Level FlightAware Transoceanic
10:26AM 55.0997 -35.8347 269° West 429 494 34,000  Level FlightAware Transoceanic
10:27AM 55.0981 -36.0434 269° West 429 494 34,000  Level FlightAware Transoceanic
10:28AM 55.0961 -36.2520 269° West 429 494 34,000  Level FlightAware Transoceanic
10:29AM 55.0938 -36.4606 269° West 429 494 34,000  Level FlightAware Transoceanic
10:30AM 55.0912 -36.6692 269° West 429 494 34,000  Level FlightAware Transoceanic
10:31AM 55.0881 -36.8778 268° West 429 494 34,000  Level FlightAware Transoceanic
10:32AM 55.0847 -37.0863 268° West 429 494 34,000  Level FlightAware Transoceanic
10:33AM 55.0810 -37.2948 268° West 429 494 34,000  Level FlightAware Transoceanic
10:34AM 55.0769 -37.5032 268° West 429 494 34,000  Level FlightAware Transoceanic
10:35AM 55.0724 -37.7116 268° West 429 494 34,000  Level FlightAware Transoceanic
10:36AM 55.0676 -37.9199 268° West 429 494 34,000  Level FlightAware Transoceanic
10:37AM 55.0625 -38.1283 267° West 429 494 34,000  Level FlightAware Transoceanic
10:38AM 55.0569 -38.3365 267° West 429 494 34,000  Level FlightAware Transoceanic
10:39AM 55.0511 -38.5447 267° West 429 494 34,000  Level FlightAware Transoceanic
10:40AM 55.0448 -38.7528 267° West 429 494 34,000  Level FlightAware Transoceanic
10:41AM 55.0382 -38.9608 267° West 429 494 34,000  Level FlightAware Transoceanic
10:42AM 55.0313 -39.1688 267° West 429 494 34,000  Level FlightAware Transoceanic
10:43AM 55.0240 -39.3768 266° West 429 494 34,000  Level FlightAware Transoceanic
10:44AM 55.0164 -39.5846 266° West 429 494 34,000  Level FlightAware Transoceanic
10:45AM 55.0084 -39.7923 266° West 429 494 34,000  Level FlightAware Transoceanic
10:46AM 55.0003 -39.9922 266° West  Level FlightAware Approximate
10:47AM 54.9919 -40.1921 266° West  Level FlightAware Approximate
10:48AM 54.9894 -40.1839 264° West  Level FlightAware Approximate
10:48AM 55.0000 -40.0000 264° West 441 507 34,000  Level ETMS Enhanced Traffic Management System
10:49AM 54.9776 -40.3831 264° West  Level FlightAware Approximate
10:50AM 54.9654 -40.5822 264° West  Level FlightAware Approximate
10:51AM 54.9527 -40.7846 264° West  Level FlightAware Approximate
10:52AM 54.9397 -40.9868 264° West  Level FlightAware Approximate
10:53AM 54.9263 -41.1889 264° West  Level FlightAware Approximate
10:54AM 54.9061 -41.4861 263° West 441 507 34,000  Level FlightAware Transoceanic
10:55AM 54.8912 -41.6978 263° West 441 507 34,000  Level FlightAware Transoceanic
10:56AM 54.8759 -41.9094 263° West 441 507 34,000  Level FlightAware Transoceanic
10:57AM 54.8603 -42.1208 263° West 441 507 34,000  Level FlightAware Transoceanic
10:58AM 54.8443 -42.3320 262° West 441 507 34,000  Level FlightAware Transoceanic
10:59AM 54.8279 -42.5431 262° West 441 507 34,000  Level FlightAware Transoceanic
11:00AM 54.8112 -42.7540 262° West 441 507 34,000  Level FlightAware Transoceanic
11:01AM 54.7941 -42.9647 262° West 441 507 34,000  Level FlightAware Transoceanic
11:02AM 54.7766 -43.1752 262° West 441 507 34,000  Level FlightAware Transoceanic
11:03AM 54.7588 -43.3856 262° West 441 507 34,000  Level FlightAware Transoceanic
11:04AM 54.7406 -43.5957 261° West 441 507 34,000  Level FlightAware Transoceanic
11:05AM 54.7221 -43.8057 261° West 441 507 34,000  Level FlightAware Transoceanic
11:06AM 54.7032 -44.0155 261° West 441 507 34,000  Level FlightAware Transoceanic
11:07AM 54.6839 -44.2251 261° West 441 507 34,000  Level FlightAware Transoceanic
11:08AM 54.6643 -44.4344 261° West 441 507 34,000  Level FlightAware Transoceanic
11:09AM 54.6443 -44.6436 261° West 441 507 34,000  Level FlightAware Transoceanic
11:10AM 54.6239 -44.8526 260° West 441 507 34,000  Level FlightAware Transoceanic
11:11AM 54.6032 -45.0613 260° West 441 507 34,000  Level FlightAware Transoceanic
11:12AM 54.5821 -45.2699 260° West 441 507 34,000  Level FlightAware Transoceanic
11:13AM 54.5607 -45.4782 260° West 441 507 34,000  Level FlightAware Transoceanic
11:14AM 54.5389 -45.6863 260° West 441 507 34,000  Level FlightAware Transoceanic
11:15AM 54.5168 -45.8942 260° West 441 507 34,000  Level FlightAware Transoceanic
11:16AM 54.4943 -46.1018 259° West 441 507 34,000  Level FlightAware Transoceanic
11:17AM 54.4714 -46.3092 259° West 441 507 34,000  Level FlightAware Transoceanic
11:18AM 54.4482 -46.5164 259° West 441 507 34,000  Level FlightAware Transoceanic
11:19AM 54.4246 -46.7234 259° West 441 507 34,000  Level FlightAware Transoceanic
11:20AM 54.4007 -46.9301 259° West 441 507 34,000  Level FlightAware Transoceanic
11:21AM 54.3764 -47.1366 259° West 441 507 34,000  Level FlightAware Transoceanic
11:22AM 54.3518 -47.3428 258° West 441 507 34,000  Level FlightAware Transoceanic
11:23AM 54.3268 -47.5488 258° West 441 507 34,000  Level FlightAware Transoceanic
11:24AM 54.3015 -47.7545 258° West 441 507 34,000  Level FlightAware Transoceanic
11:25AM 54.2758 -47.9600 258° West 441 507 34,000  Level FlightAware Transoceanic
11:26AM 54.2498 -48.1652 258° West 441 507 34,000  Level FlightAware Transoceanic
11:27AM 54.2234 -48.3701 257° West 441 507 34,000  Level FlightAware Transoceanic
11:28AM 54.1967 -48.5748 257° West 441 507 34,000  Level FlightAware Transoceanic
11:29AM 54.1696 -48.7792 257° West 441 507 34,000  Level FlightAware Transoceanic
11:30AM 54.1422 -48.9834 257° West 441 507 34,000  Level FlightAware Transoceanic
11:31AM 54.1145 -49.1872 257° West 441 507 34,000  Level FlightAware Transoceanic
11:32AM 54.0864 -49.3909 257° West 441 507 34,000  Level FlightAware Transoceanic
11:33AM 54.0579 -49.5942 257° West 441 507 34,000  Level FlightAware Transoceanic
11:34AM 54.0291 -49.7972 256° West 441 507 34,000  Level FlightAware Transoceanic
11:35AM 54.0014 -49.9905 256° West  Level FlightAware Approximate
11:36AM 53.9733 -50.1834 256° West  Level FlightAware Approximate
11:37AM 53.9618 -50.1670 249° West  Level FlightAware Approximate
11:37AM 54.0000 -50.0000 251° West 466 536 34,000  Level ETMS Enhanced Traffic Management System
11:38AM 53.9191 -50.3518 249° West  Level FlightAware Approximate
11:39AM 53.8761 -50.5363 249° West  Level FlightAware Approximate
11:40AM 53.8331 -50.7192 248° West  Level FlightAware Approximate
11:41AM 53.7899 -50.9017 248° West  Level FlightAware Approximate
11:42AM 53.7464 -51.0839 248° West  Level FlightAware Approximate
11:43AM 53.6433 -51.6481 249° West 466 536 34,000  Level FlightAware Transoceanic
11:44AM 53.5971 -51.8522 249° West 466 536 34,000  Level FlightAware Transoceanic
11:45AM 53.5506 -52.0558 249° West 466 536 34,000  Level FlightAware Transoceanic
11:46AM 53.5037 -52.2589 249° West 466 536 34,000  Level FlightAware Transoceanic
11:47AM 53.4565 -52.4616 249° West 466 536 34,000  Level FlightAware Transoceanic
11:48AM 53.4090 -52.6638 248° West 466 536 34,000  Level FlightAware Transoceanic
11:49AM 53.3611 -52.8656 248° West 466 536 34,000  Level FlightAware Transoceanic
11:50AM 53.3129 -53.0669 248° West 466 536 34,000  Level FlightAware Transoceanic
11:51AM 53.2643 -53.2678 248° West 466 536 34,000  Level FlightAware Transoceanic
11:51AM 53.2833 -53.1000 247° West 450 518 34,000  Level Gander Center
11:52AM 53.2154 -53.4682 248° West 466 536 34,000  Level FlightAware Transoceanic
11:52AM 53.2500 -53.3000 255° West 450 518 34,000  Level Gander Center
11:53AM 53.1661 -53.6681 248° West 466 536 34,000  Level FlightAware Transoceanic
11:54AM 53.1166 -53.8676 247° West 466 536 34,000  Level FlightAware Transoceanic
11:54AM 53.1500 -53.6833 247° West 440 506 34,000  Level Gander Center
11:55AM 53.0086 -53.9386 202° Southwest  Level FlightAware Approximate
11:55AM 53.1167 -53.8667 253° West 440 506 34,000  Level Gander Center
11:56AM 53.0070 -53.9722 247° West  Level FlightAware Approximate
11:56AM 53.0667 -54.0667 247° West 450 518 34,000  Level Gander Center
11:57AM 53.0167 -54.2667 248° West 450 518 34,000  Level Gander Center
11:58AM 52.9667 -54.4500 246° West 440 506 34,000  Level Gander Center
11:59AM 52.9333 -54.6500 255° West 440 506 34,000  Level Gander Center
12:00PM 52.8667 -54.8500 241° Southwest 430 495 34,000  Level Gander Center
12:01PM 52.8333 -55.0167 252° West 440 506 34,000 240 Level Gander Center
12:02PM 52.7833 -55.1667 241° Southwest 440 506 34,500 540 Climbing Moncton Center
12:03PM 52.7333 -55.3500 246° West 430 495 35,000 180 Climbing Moncton Center
12:04PM 52.6833 -55.5667 249° West 430 495 35,000  Level Gander Center
12:05PM 52.6333 -55.7667 248° West 440 506 35,000  Level Gander Center
12:06PM 52.5833 -55.9333 244° Southwest 440 506 35,000  Level Gander Center
12:07PM 52.5500 -56.1333 255° West 430 495 35,000  Level Gander Center
12:08PM 52.4833 -56.3167 239° Southwest 440 506 35,000  Level Gander Center
12:09PM 52.4500 -56.4833 252° West 430 495 35,000  Level Gander Center
12:10PM 52.4000 -56.6333 241° Southwest 440 506 35,000  Level Moncton Center
12:11PM 52.3500 -56.8000 244° Southwest 440 506 35,000  Level Moncton Center
12:12PM 52.3167 -57.0000 255° West 440 506 35,000  Level Moncton Center
12:13PM 52.2500 -57.1833 239° Southwest 440 506 35,000  Level Moncton Center
12:14PM 52.2000 -57.4000 249° West 440 506 35,000  Level Gander Center
12:15PM 52.1667 -57.5500 250° West 430 495 35,000  Level Moncton Center
12:16PM 52.1000 -57.7167 237° Southwest 430 495 35,000  Level Moncton Center
12:17PM 52.0500 -57.9167 248° West 430 495 35,000  Level Gander Center
12:18PM 51.9833 -58.1000 239° Southwest 430 495 35,000  Level Gander Center
12:19PM 51.9333 -58.2667 244° Southwest 420 483 35,000  Level Gander Center
12:20PM 51.8833 -58.4333 244° Southwest 430 495 35,000  Level Gander Center
12:21PM 51.8500 -58.6333 255° West 430 495 35,000  Level Gander Center
12:22PM 51.8000 -58.7667 239° Southwest 430 495 35,000  Level Moncton Center
12:23PM 51.7333 -58.9667 242° Southwest 430 495 35,000  Level Gander Center
12:24PM 51.6833 -59.1167 242° Southwest 430 495 35,000  Level Gander Center
12:25PM 51.6167 -59.3167 242° Southwest 420 483 35,000  Level Gander Center
12:26PM 51.5833 -59.4833 252° West 430 495 35,000  Level Gander Center
12:27PM 51.5333 -59.6667 246° West 420 483 35,000  Level Gander Center
12:28PM 51.4833 -59.8000 239° Southwest 430 495 35,000  Level Moncton Center
12:29PM 51.4333 -59.9667 244° Southwest 430 495 35,000  Level Moncton Center
12:30PM 51.3667 -60.1500 240° Southwest 420 483 35,000  Level Gander Center
12:31PM 51.3000 -60.3167 237° Southwest 430 495 35,000  Level Gander Center
12:32PM 51.2500 -60.5000 247° West 430 495 35,000  Level Gander Center
12:33PM 51.2000 -60.6667 244° Southwest 430 495 35,000  Level Gander Center
12:34PM 51.1333 -60.8500 240° Southwest 420 483 35,000  Level Gander Center
12:36PM 51.0500 -61.1167 244° Southwest 430 495 35,000  Level Montreal Center
12:37PM 50.9833 -61.2667 235° Southwest 430 495 35,000  Level Montreal Center
12:38PM 50.9167 -61.4500 240° Southwest 430 495 35,000  Level Montreal Center
12:39PM 50.8667 -61.6000 242° Southwest 430 495 35,000  Level Montreal Center
12:40PM 50.8333 -61.7833 254° West 430 495 35,000  Level Montreal Center
12:41PM 50.7667 -61.9333 235° Southwest 430 495 35,000  Level Montreal Center
12:42PM 50.7167 -62.0833 242° Southwest 420 483 35,000  Level Montreal Center
12:43PM 50.6500 -62.2667 240° Southwest 420 483 35,000  Level Montreal Center
12:44PM 50.6000 -62.4500 247° West 420 483 35,000  Level Montreal Center
12:45PM 50.5333 -62.6000 235° Southwest 420 483 35,000  Level Montreal Center
12:46PM 50.4833 -62.7500 242° Southwest 430 495 35,000  Level Montreal Center
12:47PM 50.4167 -62.9333 240° Southwest 430 495 35,000  Level Montreal Center
12:48PM 50.3667 -63.0667 240° Southwest 430 495 35,000  Level Montreal Center
12:49PM 50.3000 -63.2500 240° Southwest 430 495 35,000  Level Montreal Center
12:50PM 50.2500 -63.4000 243° Southwest 420 483 35,000  Level Montreal Center
12:51PM 50.1833 -63.5833 240° Southwest 420 483 35,100 360 Climbing Montreal Center
12:52PM 50.1333 -63.7167 240° Southwest 420 483 35,800 420 Climbing Montreal Center
12:53PM 50.0667 -63.9000 241° Southwest 420 483 36,000 60 Climbing Montreal Center
12:54PM 50.0167 -64.0500 243° Southwest 410 472 36,000  Level Montreal Center
12:55PM 49.9667 -64.1833 240° Southwest 410 472 36,000 300 Level Montreal Center
12:56PM 49.9000 -64.3667 241° Southwest 410 472 36,600 780 Climbing Montreal Center
12:57PM 49.8500 -64.5167 243° Southwest 400 460 37,600 660 Climbing Montreal Center
12:58PM 49.8000 -64.6500 240° Southwest 400 460 38,000 180 Climbing Montreal Center
12:59PM 49.7333 -64.8000 236° Southwest 410 472 38,000  Level Montreal Center
01:00PM 49.6667 -64.9667 238° Southwest 410 472 38,000  Level Montreal Center
01:01PM 49.6167 -65.1167 243° Southwest 410 472 38,000  Level Montreal Center
01:02PM 49.5500 -65.2667 236° Southwest 410 472 38,000  Level Montreal Center
01:03PM 49.5000 -65.4000 240° Southwest 410 472 38,000  Level Montreal Center
01:04PM 49.4333 -65.5500 236° Southwest 400 460 38,000  Level Montreal Center
01:05PM 49.3833 -65.7167 245° Southwest 400 460 38,000  Level Montreal Center
01:06PM 49.3333 -65.8500 240° Southwest 400 460 38,000  Level Montreal Center
01:07PM 49.2667 -66.0000 236° Southwest 400 460 38,000  Level Montreal Center
01:08PM 49.2000 -66.1500 236° Southwest 400 460 38,000  Level Montreal Center
01:09PM 49.1500 -66.2833 240° Southwest 400 460 38,000  Level Montreal Center
01:10PM 49.1000 -66.4167 240° Southwest 400 460 38,000  Level Montreal Center
01:11PM 49.0333 -66.5667 236° Southwest 400 460 38,000  Level Montreal Center
01:12PM 48.9667 -66.7333 239° Southwest 400 460 38,000  Level Montreal Center
01:13PM 48.9167 -66.8667 240° Southwest 400 460 38,000  Level Montreal Center
01:14PM 48.8500 -67.0167 236° Southwest 410 472 38,000  Level Montreal Center
01:15PM 48.7833 -67.1500 233° Southwest 410 472 38,000  Level Montreal Center
01:16PM 48.7333 -67.3167 246° West 410 472 38,000  Level Montreal Center
01:17PM 48.6667 -67.4500 233° Southwest 400 460 38,000  Level Montreal Center
01:18PM 48.6167 -67.5833 240° Southwest 410 472 38,000  Level Montreal Center
01:23PM 48.2890 -68.4010 240° Southwest 409 471 38,000  Level FlightAware
01:24PM 48.2530 -68.4820 236° Southwest 409 471 38,000  Level FlightAware
01:25PM 48.2060 -68.5900 237° Southwest 412 474 38,000  Level FlightAware
01:25PM 48.1770 -68.6570 237° Southwest 412 474 38,000  Level FlightAware
01:26PM 48.1320 -68.7560 236° Southwest 412 474 38,000  Level FlightAware
01:26PM 48.1010 -68.8270 237° Southwest 413 475 38,000  Level FlightAware
01:27PM 48.0650 -68.9090 237° Southwest 412 474 38,000  Level FlightAware
01:27PM 48.0270 -68.9930 236° Southwest 413 475 38,000  Level FlightAware
01:28PM 47.9850 -69.0880 237° Southwest 413 475 38,000  Level FlightAware
01:29PM 47.9530 -69.1590 236° Southwest 414 476 38,000  Level FlightAware
01:29PM 47.9160 -69.2410 236° Southwest 414 476 38,000  Level FlightAware
01:30PM 47.8790 -69.3230 236° Southwest 414 476 38,000  Level FlightAware
01:30PM 47.8410 -69.4060 236° Southwest 414 476 38,000  Level FlightAware
01:31PM 47.7940 -69.5110 236° Southwest 416 479 38,000  Level FlightAware
01:32PM 47.7550 -69.5930 235° Southwest 416 479 38,000  Level FlightAware
01:32PM 47.7190 -69.6600 231° Southwest 417 480 38,000  Level FlightAware
01:33PM 47.6660 -69.7600 232° Southwest 419 482 38,000  Level FlightAware
01:33PM 47.6230 -69.8390 231° Southwest 419 482 38,000  Level FlightAware
01:34PM 47.5800 -69.9170 231° Southwest 419 482 38,000  Level FlightAware
01:35PM 47.5380 -69.9950 231° Southwest 420 483 38,000  Level FlightAware
01:35PM 47.4950 -70.0720 230° Southwest 420 483 38,000  Level FlightAware
01:36PM 47.4520 -70.1500 231° Southwest 420 483 38,000  Level FlightAware
01:36PM 47.4100 -70.2270 231° Southwest 420 483 38,000  Level FlightAware
01:37PM 47.3610 -70.3160 231° Southwest 419 482 38,000  Level FlightAware
01:38PM 47.3120 -70.4040 231° Southwest 419 482 38,000  Level FlightAware
01:38PM 47.2750 -70.4700 230° Southwest 419 482 38,000  Level FlightAware
01:39PM 47.2270 -70.5570 231° Southwest 418 481 38,000  Level FlightAware
01:39PM 47.1900 -70.6230 230° Southwest 418 481 38,000  Level FlightAware
01:40PM 47.1460 -70.7010 230° Southwest 417 480 38,000  Level FlightAware
01:41PM 47.0990 -70.7850 231° Southwest 416 479 38,000  Level FlightAware
01:41PM 47.0620 -70.8500 230° Southwest 416 479 38,000  Level FlightAware
01:42PM 47.0200 -70.9240 230° Southwest 415 478 38,000  Level FlightAware
01:42PM 46.9750 -71.0040 231° Southwest 415 478 38,000  Level FlightAware
01:43PM 46.9350 -71.0750 230° Southwest 414 476 38,000  Level FlightAware
01:43PM 46.8930 -71.1480 230° Southwest 414 476 38,000  Level FlightAware
01:44PM 46.8490 -71.2250 230° Southwest 413 475 38,000  Level FlightAware
01:45PM 46.8000 -71.3110 230° Southwest 412 474 38,000  Level FlightAware
01:45PM 46.7640 -71.3730 230° Southwest 412 474 38,000  Level FlightAware
01:46PM 46.7150 -71.4570 230° Southwest 411 473 38,000  Level FlightAware
01:46PM 46.6800 -71.5200 231° Southwest 410 472 38,000 -600 Level FlightAware
01:47PM 46.6360 -71.5940 229° Southwest 414 476 37,400 -1,380 Descending FlightAware
01:48PM 46.5930 -71.6690 230° Southwest 420 483 36,400 -1,620 Descending FlightAware
01:48PM 46.5310 -71.7620 226° Southwest 428 493 35,300 -1,740 Descending FlightAware
01:49PM 46.4790 -71.8300 222° Southwest 442 509 34,100 -2,160 Descending FlightAware
01:49PM 46.4260 -71.8980 221° Southwest 442 509 32,800 -2,580 Descending FlightAware
01:50PM 46.3730 -71.9670 222° Southwest 445 512 31,100 -2,280 Descending FlightAware
01:51PM 46.3190 -72.0360 221° Southwest 436 502 30,200 -1,740 Descending FlightAware
01:51PM 46.2670 -72.1020 221° Southwest 429 494 29,100 -2,280 Descending FlightAware
01:52PM 46.2160 -72.1680 222° Southwest 423 487 27,600 -2,640 Descending FlightAware
01:52PM 46.1650 -72.2330 221° Southwest 419 482 26,100 -2,640 Descending FlightAware
01:53PM 46.1230 -72.2860 221° Southwest 415 478 24,800 -2,580 Descending FlightAware
01:54PM 46.0650 -72.3600 222° Southwest 410 472 23,100 -2,520 Descending FlightAware
01:54PM 46.0160 -72.4220 221° Southwest 403 464 21,700 -2,400 Descending FlightAware
01:55PM 45.9610 -72.4910 221° Southwest 394 453 20,100 -2,400 Descending FlightAware
01:55PM 45.9140 -72.5510 222° Southwest 385 443 18,700 -2,580 Descending FlightAware
01:56PM 45.8600 -72.6180 221° Southwest 383 441 16,900 -2,520 Descending FlightAware
01:57PM 45.8210 -72.6680 222° Southwest 378 435 15,800 -2,220 Descending FlightAware
01:57PM 45.7760 -72.7240 221° Southwest 372 428 14,500 -2,280 Descending FlightAware
01:57PM 45.7580 -72.7510 226° Southwest 366 421 13,900 -2,400 Descending FlightAware
01:58PM 45.7470 -72.7840 244° Southwest 360 414 13,300 -2,400 Descending FlightAware
01:58PM 45.7400 -72.8180 254° West 355 409 12,700 -2,220 Descending FlightAware
01:58PM 45.7320 -72.8950 262° West 339 390 11,500 -1,980 Descending FlightAware
01:59PM 45.7240 -72.9730 262° West 315 362 10,400 -1,200 Descending FlightAware
02:00PM 45.7170 -73.0400 262° West 269 310 10,100 -540 Descending FlightAware
02:00PM 45.7150 -73.0620 263° West 253 291 10,000 -960 Descending FlightAware
02:00PM 45.7120 -73.0930 262° West 240 276 9,600 -1,680 Descending FlightAware
02:00PM 45.7090 -73.1190 261° West 248 285 9,000 -1,800 Descending FlightAware
02:01PM 45.7040 -73.1480 256° West 253 291 8,500 -1,500 Descending FlightAware
02:01PM 45.6980 -73.1840 257° West 255 293 8,000 -1,500 Descending FlightAware
02:01PM 45.6930 -73.2130 256° West 253 291 7,600 -1,320 Descending FlightAware
02:02PM 45.6880 -73.2460 258° West 250 288 7,200 -1,320 Descending FlightAware
02:02PM 45.6850 -73.2640 257° West 249 287 6,900 -1,260 Descending FlightAware
02:02PM 45.6810 -73.2840 254° West 247 284 6,700 -1,380 Descending FlightAware
02:03PM 45.6750 -73.3220 257° West 243 280 6,100 -1,380 Descending FlightAware
02:03PM 45.6720 -73.3410 257° West 237 273 5,900 -1,200 Descending FlightAware
02:03PM 45.6660 -73.3750 256° West 228 262 5,400 -1,320 Descending FlightAware
02:04PM 45.6600 -73.4080 255° West 227 261 4,900 -1,320 Descending FlightAware
02:04PM 45.6550 -73.4370 256° West 222 255 4,500 -1,320 Descending FlightAware
02:04PM 45.6520 -73.4540 256° West 219 252 4,200 -1,500 Descending FlightAware
02:04PM 45.6470 -73.4820 256° West 212 244 3,700 -1,380 Descending FlightAware
02:05PM 45.6430 -73.5090 258° West 206 237 3,300 -1,320 Descending FlightAware
02:05PM 45.6370 -73.5300 248° West 208 239 2,900 -1,200 Descending FlightAware
02:05PM 45.6320 -73.5400 234° Southwest 206 237 2,800 -300 Descending FlightAware
02:05PM 45.6220 -73.5540 224° Southwest 196 226 2,800  Level FlightAware
02:06PM 45.6110 -73.5680 222° Southwest 189 217 2,800  Level FlightAware
02:06PM 45.5980 -73.5860 224° Southwest 194 223 2,800 -420 Level FlightAware
02:06PM 45.5830 -73.6060 223° Southwest 190 219 2,500 -840 Descending FlightAware
02:07PM 45.5690 -73.6230 220° Southwest 181 208 2,200 -900 Descending FlightAware
02:07PM 45.5570 -73.6390 223° Southwest 165 190 1,900 -840 Descending FlightAware
02:07PM 45.5450 -73.6550 223° Southwest 152 175 1,600 -900 Descending FlightAware
02:08PM 45.5350 -73.6680 222° Southwest 148 170 1,300 -840 Descending FlightAware
02:08PM 45.5260 -73.6800 223° Southwest 144 166 1,100 -840 Descending FlightAware
02:08PM 45.5200 -73.6880 223° Southwest 134 154 900 -720 Descending FlightAware
02:09PM 45.5100 -73.7010 222° Southwest 133 153 700 -720 Descending FlightAware
02:09PM 45.5010 -73.7130 223° Southwest 134 154 400 -840 Descending FlightAware
02:09PM 45.4900 -73.7270 222° Southwest 133 153 100 -720 Descending FlightAware
02:10PM 45.4770 -73.7440 223° Southwest 90 104 -240 Descending FlightAware